createdAt,value
2018-05-10T00:01:14.904Z,46.73
2018-05-10T00:03:43.212Z,46.63
2018-05-10T00:06:11.443Z,45.37
2018-05-10T00:08:39.798Z,47.23
2018-05-10T00:11:08.053Z,47.87
2018-05-10T00:13:36.349Z,48.37
2018-05-10T00:16:04.651Z,47.77
2018-05-10T00:18:32.902Z,48.87
2018-05-10T00:21:01.202Z,47.33
2018-05-10T00:23:29.442Z,46.77
2018-05-10T00:25:57.741Z,44.27
2018-05-10T00:28:26.020Z,43.83
2018-05-10T00:30:54.294Z,46.47
2018-05-10T00:33:22.573Z,43.63
2018-05-10T00:35:50.845Z,46.63
2018-05-10T00:38:19.193Z,41.07
2018-05-10T00:40:47.489Z,39.87
2018-05-10T00:43:15.790Z,38.13
2018-05-10T00:45:44.213Z,36.20
2018-05-10T00:48:12.491Z,38.47
2018-05-10T00:50:41.001Z,30.53
2018-05-10T00:53:09.368Z,39.03
2018-05-10T00:55:37.750Z,35.03
2018-05-10T00:58:06.053Z,38.03
2018-05-10T01:00:34.351Z,34.30
2018-05-10T01:03:02.603Z,33.73
2018-05-10T01:05:30.845Z,34.63
2018-05-10T01:07:59.141Z,35.10
2018-05-10T01:10:27.401Z,36.33
2018-05-10T01:12:55.699Z,37.87
2018-05-10T01:15:23.977Z,35.73
2018-05-10T01:17:53.062Z,34.00
2018-05-10T01:20:21.318Z,34.30
2018-05-10T01:22:49.689Z,35.50
2018-05-10T01:25:17.971Z,31.50
2018-05-10T01:27:46.262Z,33.40
2018-05-10T01:30:14.514Z,33.27
2018-05-10T01:32:42.782Z,33.47
2018-05-10T01:35:22.783Z,29.87
2018-05-10T01:37:51.817Z,30.03
2018-05-10T01:40:20.078Z,30.03
2018-05-10T01:42:48.354Z,29.13
2018-05-10T01:45:16.627Z,28.07
2018-05-10T01:47:44.937Z,24.80
2018-05-10T01:50:13.198Z,24.17
2018-05-10T01:52:41.631Z,22.30
2018-05-10T01:55:10.058Z,21.17
2018-05-10T01:57:38.310Z,17.53
2018-05-10T02:00:06.591Z,14.67
2018-05-10T02:02:34.845Z,12.93
2018-05-10T02:05:03.892Z,10.87
2018-05-10T02:07:32.194Z,15.33
2018-05-10T02:10:00.484Z,11.10
2018-05-10T02:12:29.516Z,10.90
2018-05-10T02:14:57.792Z,14.03
2018-05-10T02:17:26.052Z,15.07
2018-05-10T02:19:54.322Z,16.07
2018-05-10T02:22:22.726Z,15.17
2018-05-10T02:24:51.010Z,17.50
2018-05-10T02:27:19.263Z,19.70
2018-05-10T02:29:47.555Z,16.80
2018-05-10T02:32:16.566Z,21.07
2018-05-10T02:34:44.843Z,19.20
2018-05-10T02:37:13.107Z,19.30
2018-05-10T02:39:41.368Z,24.43
2018-05-10T02:42:09.639Z,31.57
2018-05-10T02:44:37.922Z,29.10
2018-05-10T02:47:06.200Z,32.77
2018-05-10T02:49:34.488Z,30.23
2018-05-10T02:52:02.768Z,31.33
2018-05-10T02:54:31.242Z,32.33
2018-05-10T02:56:59.532Z,33.17
2018-05-10T02:59:28.557Z,32.73
2018-05-10T03:01:56.854Z,37.90
2018-05-10T03:04:25.114Z,38.97
2018-05-10T03:06:53.514Z,41.00
2018-05-10T03:09:21.778Z,42.13
2018-05-10T03:11:50.034Z,45.83
2018-05-10T03:14:18.376Z,42.27
2018-05-10T03:16:46.643Z,39.77
2018-05-10T03:19:14.902Z,40.97
2018-05-10T03:21:43.161Z,38.50
2018-05-10T03:24:11.624Z,41.77
2018-05-10T03:26:40.669Z,36.10
2018-05-10T03:29:08.950Z,44.60
2018-05-10T03:31:38.043Z,35.13
2018-05-10T03:34:06.315Z,40.40
2018-05-10T03:36:34.590Z,40.33
2018-05-10T03:39:02.843Z,35.77
2018-05-10T03:41:31.098Z,37.20
2018-05-10T03:43:59.384Z,33.10
2018-05-10T03:46:27.696Z,34.57
2018-05-10T03:48:56.082Z,33.63
2018-05-10T03:51:25.145Z,33.90
2018-05-10T03:53:53.514Z,36.27
2018-05-10T03:56:21.894Z,30.27
2018-05-10T03:58:50.149Z,35.30
2018-05-10T04:01:18.442Z,36.93
2018-05-10T04:03:58.625Z,35.73
2018-05-10T04:06:38.736Z,36.70
2018-05-10T04:09:19.837Z,38.90
2018-05-10T04:11:48.158Z,34.27
2018-05-10T04:14:16.497Z,35.63
2018-05-10T04:16:44.821Z,38.43
2018-05-10T04:19:13.205Z,34.97
2018-05-10T04:21:42.246Z,32.37
2018-05-10T04:24:10.509Z,37.90
2018-05-10T04:26:38.771Z,31.03
2018-05-10T04:29:07.116Z,31.63
2018-05-10T04:31:35.384Z,25.30
2018-05-10T04:34:04.504Z,30.33
2018-05-10T04:36:32.761Z,26.17
2018-05-10T04:39:01.037Z,24.10
2018-05-10T04:41:29.306Z,27.50
2018-05-10T04:43:57.687Z,25.93
2018-05-10T04:46:25.950Z,23.00
2018-05-10T04:48:54.994Z,22.50
2018-05-10T04:51:23.262Z,25.23
2018-05-10T04:53:51.526Z,24.13
2018-05-10T04:56:19.825Z,19.80
2018-05-10T04:58:48.130Z,20.17
2018-05-10T05:01:16.398Z,21.20
2018-05-10T05:03:44.686Z,22.30
2018-05-10T05:06:13.717Z,21.53
2018-05-10T05:08:42.008Z,20.50
2018-05-10T05:11:10.282Z,20.83
2018-05-10T05:13:38.526Z,16.97
2018-05-10T05:16:06.813Z,19.33
2018-05-10T05:18:35.249Z,18.37
2018-05-10T05:21:03.511Z,14.67
2018-05-10T05:23:31.799Z,15.80
2018-05-10T05:26:01.569Z,12.30
2018-05-10T05:28:29.833Z,14.27
2018-05-10T05:30:58.099Z,13.63
2018-05-10T05:33:26.409Z,10.87
2018-05-10T05:35:54.805Z,14.17
2018-05-10T05:38:23.092Z,10.87
2018-05-10T05:40:51.350Z,10.17
2018-05-10T05:43:19.707Z,9.90
2018-05-10T05:45:48.065Z,12.77
2018-05-10T05:48:16.325Z,14.20
2018-05-10T05:50:45.362Z,14.83
2018-05-10T05:53:13.652Z,14.53
2018-05-10T05:55:41.941Z,15.43
2018-05-10T05:58:10.997Z,15.63
2018-05-10T06:00:39.295Z,17.87
2018-05-10T06:03:07.640Z,16.90
2018-05-10T06:05:35.925Z,14.70
2018-05-10T06:08:04.199Z,16.00
2018-05-10T06:10:32.461Z,20.63
2018-05-10T06:13:00.746Z,20.00
2018-05-10T06:15:29.091Z,20.43
2018-05-10T06:17:57.343Z,18.03
2018-05-10T06:20:25.710Z,19.83
2018-05-10T06:22:54.140Z,24.70
2018-05-10T06:25:23.361Z,22.13
2018-05-10T06:27:51.645Z,20.93
2018-05-10T06:30:19.916Z,19.73
2018-05-10T06:32:48.245Z,19.93
2018-05-10T06:35:16.779Z,20.57
2018-05-10T06:37:45.119Z,23.70
2018-05-10T06:40:14.026Z,20.70
2018-05-10T06:42:42.281Z,20.10
2018-05-10T06:45:10.534Z,20.40
2018-05-10T06:47:38.817Z,25.60
2018-05-10T06:50:07.126Z,20.43
2018-05-10T06:52:35.468Z,25.10
2018-05-10T06:55:03.835Z,24.33
2018-05-10T06:57:32.267Z,24.40
2018-05-10T07:00:02.117Z,19.87
2018-05-10T07:02:31.262Z,26.33
2018-05-10T07:04:59.577Z,20.30
2018-05-10T07:07:28.023Z,17.77
2018-05-10T07:09:56.827Z,20.43
2018-05-10T07:12:25.379Z,17.80
2018-05-10T07:14:53.654Z,19.63
2018-05-10T07:17:22.072Z,18.37
2018-05-10T07:19:50.541Z,13.20
2018-05-10T07:22:18.822Z,13.27
2018-05-10T07:24:47.093Z,15.03
2018-05-10T07:27:15.390Z,10.60
2018-05-10T07:29:43.654Z,12.27
2018-05-10T07:32:11.936Z,12.53
2018-05-10T07:34:41.020Z,13.77
2018-05-10T07:37:09.297Z,17.43
2018-05-10T07:39:37.734Z,17.47
2018-05-10T07:42:07.113Z,16.50
2018-05-10T07:44:35.327Z,29.90
2018-05-10T07:47:03.625Z,21.93
2018-05-10T07:49:32.729Z,14.63
2018-05-10T07:52:01.802Z,12.87
2018-05-10T07:54:30.069Z,13.07
2018-05-10T07:56:58.357Z,12.53
2018-05-10T07:59:26.651Z,12.83
2018-05-10T08:01:55.726Z,12.27
2018-05-10T08:04:23.999Z,14.03
2018-05-10T08:06:52.282Z,15.90
2018-05-10T08:09:20.552Z,15.97
2018-05-10T08:11:48.837Z,17.80
2018-05-10T08:14:18.637Z,16.30
2018-05-10T08:16:46.991Z,18.97
2018-05-10T08:19:15.595Z,18.07
2018-05-10T08:21:44.040Z,15.10
2018-05-10T08:24:12.371Z,14.60
2018-05-10T08:26:40.565Z,12.83
2018-05-10T08:29:08.826Z,13.10
2018-05-10T08:31:37.936Z,9.97
2018-05-10T08:34:06.208Z,11.80
2018-05-10T08:36:35.390Z,9.10
2018-05-10T08:39:04.426Z,8.37
2018-05-10T08:41:32.710Z,7.97
2018-05-10T08:44:01.057Z,10.37
2018-05-10T08:46:29.362Z,8.77
2018-05-10T08:48:57.644Z,6.57
2018-05-10T08:51:25.893Z,8.70
2018-05-10T08:53:58.367Z,6.90
2018-05-10T08:56:27.118Z,7.80
2018-05-10T08:58:56.186Z,6.73
2018-05-10T09:01:24.455Z,6.23
2018-05-10T09:03:52.741Z,9.87
2018-05-10T09:06:21.031Z,6.53
2018-05-10T09:08:49.306Z,11.67
2018-05-10T09:11:18.390Z,9.17
2018-05-10T09:13:46.682Z,9.90
2018-05-10T09:16:15.727Z,10.67
2018-05-10T09:18:44.003Z,13.87
2018-05-10T09:21:12.300Z,10.27
2018-05-10T09:23:40.564Z,11.57
2018-05-10T09:26:08.860Z,13.47
2018-05-10T09:28:37.233Z,8.07
2018-05-10T09:31:05.513Z,10.40
2018-05-10T09:33:34.175Z,10.90
2018-05-10T09:36:02.645Z,7.43
2018-05-10T09:38:31.165Z,11.53
2018-05-10T09:40:59.420Z,8.30
2018-05-10T09:43:27.682Z,9.67
2018-05-10T09:45:55.956Z,14.33
2018-05-10T09:48:24.206Z,11.23
2018-05-10T09:50:52.489Z,12.73
2018-05-10T09:53:20.746Z,12.07
2018-05-10T09:55:49.042Z,10.37
2018-05-10T09:58:17.356Z,13.57
2018-05-10T10:00:46.401Z,10.67
2018-05-10T10:03:14.677Z,12.43
2018-05-10T10:05:42.943Z,11.73
2018-05-10T10:08:11.258Z,14.17
2018-05-10T10:10:39.541Z,15.10
2018-05-10T10:13:07.826Z,19.83
2018-05-10T10:15:36.103Z,12.07
2018-05-10T10:18:04.441Z,14.53
2018-05-10T10:20:32.731Z,19.30
2018-05-10T10:23:01.117Z,12.00
2018-05-10T10:25:29.407Z,13.13
2018-05-10T10:27:57.610Z,13.60
2018-05-10T10:30:26.623Z,15.30
2018-05-10T10:32:54.887Z,15.03
2018-05-10T10:35:23.175Z,18.00
2018-05-10T10:37:51.449Z,14.57
2018-05-10T10:40:19.755Z,22.87
2018-05-10T10:42:47.997Z,18.40
2018-05-10T10:45:17.013Z,27.40
2018-05-10T10:47:45.284Z,23.33
2018-05-10T10:50:13.599Z,29.30
2018-05-10T10:52:41.868Z,27.57
2018-05-10T10:55:10.150Z,27.23
2018-05-10T10:57:39.189Z,30.03
2018-05-10T11:00:07.638Z,30.70
2018-05-10T11:02:35.920Z,26.50
2018-05-10T11:05:04.968Z,28.93
2018-05-10T11:07:33.230Z,30.50
2018-05-10T11:10:01.519Z,26.03
2018-05-10T11:12:29.965Z,28.20
2018-05-10T11:14:58.276Z,31.50
2018-05-10T11:17:26.527Z,34.80
2018-05-10T11:19:54.910Z,32.00
2018-05-10T11:22:23.225Z,31.90
2018-05-10T11:24:52.274Z,23.77
2018-05-10T11:27:20.738Z,26.33
2018-05-10T11:29:49.132Z,31.90
2018-05-10T11:32:17.388Z,28.83
2018-05-10T11:34:45.695Z,29.13
2018-05-10T11:37:14.062Z,24.87
2018-05-10T11:39:42.396Z,28.43
2018-05-10T11:42:11.510Z,32.37
2018-05-10T11:44:39.802Z,22.33
2018-05-10T11:47:08.722Z,29.40
2018-05-10T11:49:37.038Z,30.13
2018-05-10T11:52:06.075Z,27.13
2018-05-10T11:54:34.378Z,22.33
2018-05-10T11:57:03.436Z,26.23
2018-05-10T11:59:31.820Z,27.90
2018-05-10T12:02:00.100Z,22.70
2018-05-10T12:04:28.395Z,27.90
2018-05-10T12:06:58.855Z,20.63
2018-05-10T12:09:28.711Z,22.43
2018-05-10T12:11:57.228Z,26.83
2018-05-10T12:14:25.534Z,24.47
2018-05-10T12:16:53.835Z,23.23
2018-05-10T12:19:22.262Z,22.33
2018-05-10T12:21:51.320Z,24.40
2018-05-10T12:24:19.596Z,26.43
2018-05-10T12:26:47.883Z,24.30
2018-05-10T12:29:16.222Z,20.03
2018-05-10T12:31:44.818Z,25.13
2018-05-10T12:34:13.231Z,25.17
2018-05-10T12:36:42.280Z,24.60
2018-05-10T12:39:10.588Z,24.03
2018-05-10T12:41:38.889Z,23.50
2018-05-10T12:44:07.935Z,21.50
2018-05-10T12:46:36.225Z,24.37
2018-05-10T12:49:04.534Z,21.73
2018-05-10T12:51:32.845Z,27.43
2018-05-10T12:54:01.239Z,21.77
2018-05-10T12:56:29.910Z,28.93
2018-05-10T12:58:58.282Z,22.90
2018-05-10T13:01:26.622Z,25.90
2018-05-10T13:03:55.687Z,24.93
2018-05-10T13:06:24.257Z,22.43
2018-05-10T13:08:52.543Z,27.83
2018-05-10T13:11:20.837Z,26.43
2018-05-10T13:13:49.877Z,27.77
2018-05-10T13:16:18.138Z,24.27
2018-05-10T13:18:46.411Z,22.80
2018-05-10T13:21:15.668Z,25.90
2018-05-10T13:23:43.956Z,29.20
2018-05-10T13:26:12.988Z,25.97
2018-05-10T13:28:41.301Z,24.70
2018-05-10T13:31:10.372Z,36.83
2018-05-10T13:33:38.663Z,26.77
2018-05-10T13:36:06.946Z,24.63
2018-05-10T13:38:36.831Z,25.17
2018-05-10T13:41:05.108Z,25.30
2018-05-10T13:43:33.409Z,21.93
2018-05-10T13:46:01.681Z,24.00
2018-05-10T13:48:29.951Z,28.67
2018-05-10T13:50:58.246Z,22.70
2018-05-10T13:53:27.289Z,18.07
2018-05-10T13:55:55.616Z,21.37
2018-05-10T13:58:23.898Z,18.63
2018-05-10T14:00:52.951Z,22.10
2018-05-10T14:03:21.230Z,25.40
2018-05-10T14:05:49.513Z,25.97
2018-05-10T14:08:17.783Z,21.80
2018-05-10T14:10:46.101Z,21.53
2018-05-10T14:13:14.344Z,17.17
2018-05-10T14:15:42.651Z,18.50
2018-05-10T14:18:11.688Z,15.03
2018-05-10T14:20:39.950Z,17.20
2018-05-10T14:23:08.234Z,19.13
2018-05-10T14:25:36.507Z,23.30
2018-05-10T14:28:04.831Z,15.37
2018-05-10T14:30:33.086Z,19.70
2018-05-10T14:33:02.893Z,17.17
2018-05-10T14:35:31.150Z,14.60
2018-05-10T14:37:59.414Z,15.90
2018-05-10T14:40:27.678Z,12.27
2018-05-10T14:42:56.037Z,15.63
2018-05-10T14:45:25.089Z,9.70
2018-05-10T14:47:53.352Z,13.80
2018-05-10T14:50:21.602Z,8.87
2018-05-10T14:52:49.933Z,10.03
2018-05-10T14:55:18.315Z,11.17
2018-05-10T14:57:47.387Z,11.53
2018-05-10T15:00:15.748Z,11.17
2018-05-10T15:02:44.003Z,14.00
2018-05-10T15:05:12.393Z,11.47
2018-05-10T15:07:40.631Z,11.47
2018-05-10T15:10:08.983Z,10.87
2018-05-10T15:12:41.550Z,8.57
2018-05-10T15:15:10.274Z,8.63
2018-05-10T15:17:38.579Z,7.73
2018-05-10T15:20:08.320Z,8.80
2018-05-10T15:22:36.627Z,13.47
2018-05-10T15:25:05.042Z,10.83
2018-05-10T15:27:33.294Z,10.43
2018-05-10T15:30:01.598Z,11.80
2018-05-10T15:32:29.873Z,11.30
2018-05-10T15:34:58.182Z,10.67
2018-05-10T15:37:26.440Z,8.20
2018-05-10T15:39:54.726Z,10.20
2018-05-10T15:42:23.012Z,7.90
2018-05-10T15:44:51.302Z,11.87
2018-05-10T15:47:20.371Z,10.63
2018-05-10T15:49:48.634Z,10.27
2018-05-10T15:52:16.927Z,15.50
2018-05-10T15:54:45.989Z,9.47
2018-05-10T15:57:14.289Z,11.07
2018-05-10T15:59:42.542Z,11.43
2018-05-10T16:02:10.863Z,10.23
2018-05-10T16:04:40.063Z,9.53
2018-05-10T16:07:08.556Z,11.90
2018-05-10T16:09:37.157Z,11.03
2018-05-10T16:12:05.486Z,9.30
2018-05-10T16:14:33.734Z,9.27
2018-05-10T16:17:02.044Z,9.50
2018-05-10T16:19:31.085Z,8.67
2018-05-10T16:21:59.470Z,8.50
2018-05-10T16:24:27.827Z,9.13
2018-05-10T16:26:56.090Z,8.50
2018-05-10T16:29:24.377Z,8.10
2018-05-10T16:31:54.428Z,7.50
2018-05-10T16:34:22.739Z,6.47
2018-05-10T16:36:51.820Z,8.43
2018-05-10T16:39:20.175Z,8.70
2018-05-10T16:41:48.446Z,6.77
2018-05-10T16:44:16.818Z,9.90
2018-05-10T16:46:45.242Z,10.17
2018-05-10T16:49:14.278Z,9.70
2018-05-10T16:51:42.542Z,6.57
2018-05-10T16:54:10.873Z,8.87
2018-05-10T16:56:39.172Z,6.37
2018-05-10T16:59:08.253Z,8.73
2018-05-10T17:01:37.365Z,13.07
2018-05-10T17:04:05.698Z,6.53
2018-05-10T17:06:33.974Z,5.90
2018-05-10T17:09:03.759Z,11.53
2018-05-10T17:11:32.014Z,7.93
2018-05-10T17:14:00.344Z,13.27
2018-05-10T17:16:28.598Z,12.43
2018-05-10T17:18:56.878Z,11.70
2018-05-10T17:21:25.150Z,5.50
2018-05-10T17:23:53.427Z,10.17
2018-05-10T17:26:21.682Z,7.73
2018-05-10T17:28:49.957Z,8.67
2018-05-10T17:31:18.294Z,11.37
2018-05-10T17:33:46.566Z,10.77
2018-05-10T17:36:15.652Z,13.80
2018-05-10T17:38:43.940Z,12.97
2018-05-10T17:41:12.220Z,15.87
2018-05-10T17:43:41.230Z,8.90
2018-05-10T17:46:09.509Z,6.00
2018-05-10T17:48:37.805Z,7.13
2018-05-10T17:51:06.075Z,6.60
2018-05-10T17:53:34.337Z,5.83
2018-05-10T17:56:02.617Z,10.23
2018-05-10T17:58:30.917Z,6.07
2018-05-10T18:00:59.211Z,7.50
2018-05-10T18:03:27.687Z,7.13
2018-05-10T18:05:55.964Z,3.67
2018-05-10T18:08:24.244Z,5.00
2018-05-10T18:10:53.345Z,6.47
2018-05-10T18:13:22.397Z,6.23
2018-05-10T18:15:50.637Z,4.93
2018-05-10T18:18:18.902Z,5.17
2018-05-10T18:20:47.269Z,4.87
2018-05-10T18:23:15.575Z,4.83
2018-05-10T18:25:43.993Z,6.03
2018-05-10T18:28:12.294Z,3.63
2018-05-10T18:30:40.549Z,8.53
2018-05-10T18:33:08.927Z,8.97
2018-05-10T18:35:37.067Z,5.53
2018-05-10T18:38:05.324Z,5.80
2018-05-10T18:40:33.584Z,5.27
2018-05-10T18:43:02.694Z,7.47
2018-05-10T18:45:32.152Z,3.27
2018-05-10T18:48:00.424Z,8.27
2018-05-10T18:50:28.786Z,6.10
2018-05-10T18:52:57.081Z,9.07
2018-05-10T18:55:25.431Z,11.43
2018-05-10T18:57:53.709Z,6.03
2018-05-10T19:00:21.966Z,7.70
2018-05-10T19:02:50.229Z,6.00
2018-05-10T19:05:19.262Z,5.63
2018-05-10T19:07:47.539Z,9.13
2018-05-10T19:10:15.767Z,8.70
2018-05-10T19:12:44.005Z,5.57
2018-05-10T19:15:12.281Z,6.13
2018-05-10T19:17:41.308Z,5.27
2018-05-10T19:20:11.054Z,5.57
2018-05-10T19:22:39.321Z,6.53
2018-05-10T19:25:07.596Z,8.23
2018-05-10T19:27:35.845Z,5.90
2018-05-10T19:30:04.885Z,5.73
2018-05-10T19:32:33.401Z,9.27
2018-05-10T19:35:02.451Z,4.90
2018-05-10T19:37:30.731Z,3.47
2018-05-10T19:39:58.995Z,5.13
2018-05-10T19:42:27.399Z,5.53
2018-05-10T19:44:55.633Z,7.03
2018-05-10T19:47:24.106Z,7.47
2018-05-10T19:49:52.552Z,5.30
2018-05-10T19:52:21.602Z,8.50
2018-05-10T19:54:50.647Z,5.30
2018-05-10T19:57:19.693Z,8.10
2018-05-10T19:59:47.968Z,8.00
2018-05-10T20:02:16.224Z,4.60
2018-05-10T20:04:44.471Z,3.97
2018-05-10T20:07:13.581Z,5.13
2018-05-10T20:09:41.849Z,5.13
2018-05-10T20:12:10.118Z,5.90
2018-05-10T20:14:39.165Z,8.30
2018-05-10T20:17:07.640Z,5.73
2018-05-10T20:19:35.899Z,4.93
2018-05-10T20:22:04.147Z,7.97
2018-05-10T20:24:32.545Z,6.20
2018-05-10T20:27:00.850Z,5.87
2018-05-10T20:29:29.098Z,4.63
2018-05-10T20:31:57.364Z,5.70
2018-05-10T20:34:25.620Z,5.47
2018-05-10T20:36:54.631Z,8.97
2018-05-10T20:39:22.921Z,6.53
2018-05-10T20:41:51.182Z,5.83
2018-05-10T20:44:19.422Z,14.47
2018-05-10T20:46:47.687Z,6.20
2018-05-10T20:49:15.978Z,7.97
2018-05-10T20:51:44.225Z,7.50
2018-05-10T20:54:13.256Z,5.40
2018-05-10T20:56:41.574Z,7.97
2018-05-10T20:59:09.924Z,6.60
2018-05-10T21:01:38.193Z,9.40
2018-05-10T21:04:06.474Z,7.40
2018-05-10T21:06:34.725Z,7.87
2018-05-10T21:09:02.966Z,7.17
2018-05-10T21:11:32.026Z,7.27
2018-05-10T21:14:00.310Z,7.27
2018-05-10T21:16:28.544Z,5.63
2018-05-10T21:18:57.659Z,12.40
2018-05-10T21:21:25.921Z,9.87
2018-05-10T21:23:54.962Z,8.37
2018-05-10T21:26:23.587Z,6.67
2018-05-10T21:28:53.106Z,8.50
2018-05-10T21:31:24.749Z,6.43
2018-05-10T21:33:53.133Z,9.70
2018-05-10T21:36:22.145Z,9.70
2018-05-10T21:38:50.409Z,8.67
2018-05-10T21:41:18.722Z,9.37
2018-05-10T21:43:46.982Z,8.87
2018-05-10T21:46:15.230Z,9.87
2018-05-10T21:48:43.650Z,5.07
2018-05-10T21:51:11.904Z,9.17
2018-05-10T21:53:40.230Z,10.10
2018-05-10T21:56:09.257Z,9.33
2018-05-10T21:58:37.713Z,9.43
2018-05-10T22:01:05.974Z,11.70
2018-05-10T22:03:35.007Z,12.07
2018-05-10T22:06:03.283Z,7.13
2018-05-10T22:08:31.573Z,11.07
2018-05-10T22:10:59.837Z,11.23
2018-05-10T22:13:28.146Z,11.30
2018-05-10T22:15:56.426Z,9.63
2018-05-10T22:18:25.466Z,10.67
2018-05-10T22:20:53.874Z,9.00
2018-05-10T22:23:22.167Z,10.77
2018-05-10T22:25:51.220Z,10.27
2018-05-10T22:28:19.481Z,7.17
2018-05-10T22:30:47.809Z,9.83
2018-05-10T22:33:16.073Z,12.63
2018-05-10T22:35:44.319Z,6.53
2018-05-10T22:38:12.579Z,9.10
2018-05-10T22:40:40.876Z,8.63
2018-05-10T22:43:09.121Z,7.87
2018-05-10T22:45:37.396Z,9.80
2018-05-10T22:48:05.744Z,6.47
2018-05-10T22:50:34.295Z,7.13
2018-05-10T22:53:02.562Z,5.67
2018-05-10T22:55:30.812Z,10.37
2018-05-10T22:57:59.081Z,8.30
2018-05-10T23:00:27.327Z,9.73
2018-05-10T23:02:56.366Z,7.83
2018-05-10T23:05:34.574Z,6.73
2018-05-10T23:08:02.840Z,5.37
2018-05-10T23:10:31.095Z,9.40
2018-05-10T23:13:00.102Z,6.40
2018-05-10T23:15:28.374Z,5.33
2018-05-10T23:17:56.731Z,6.40
2018-05-10T23:20:25.004Z,4.93
2018-05-10T23:22:54.010Z,5.63
2018-05-10T23:25:22.276Z,7.83
2018-05-10T23:27:51.456Z,5.77
2018-05-10T23:30:19.805Z,6.83
2018-05-10T23:32:48.165Z,8.30
2018-05-10T23:35:16.405Z,6.00
2018-05-10T23:37:44.645Z,5.10
2018-05-10T23:40:12.918Z,7.67
2018-05-10T23:42:42.730Z,10.77
2018-05-10T23:45:11.006Z,6.50
2018-05-10T23:47:39.495Z,5.93
2018-05-10T23:50:08.541Z,8.60
2018-05-10T23:52:36.786Z,6.87
2018-05-10T23:55:05.230Z,13.87
2018-05-10T23:57:33.489Z,14.70
